sensor_id;sensor_type;location;lat;lon;timestamp;P1;durP1;ratioP1;P2;durP2;ratioP2
38332;SDS011;25748;46.670;14.272;2022-08-01T09:21:31;2.78;;;2.50;;
38332;SDS011;25748;46.670;14.272;2022-08-01T09:23:57;3.67;;;2.10;;
38332;SDS011;25748;46.670;14.272;2022-08-01T09:31:59;2.25;;;2.03;;
38332;SDS011;25748;46.670;14.272;2022-08-01T09:34:30;3.72;;;1.98;;
38332;SDS011;25748;46.670;14.272;2022-08-01T09:36:58;2.60;;;2.20;;
38332;SDS011;25748;46.670;14.272;2022-08-01T09:39:26;2.90;;;1.77;;
38332;SDS011;25748;46.670;14.272;2022-08-01T09:41:53;4.53;;;2.55;;
38332;SDS011;25748;46.670;14.272;2022-08-01T09:44:25;4.70;;;1.83;;
38332;SDS011;25748;46.670;14.272;2022-08-01T09:47:05;2.92;;;1.70;;
38332;SDS011;25748;46.670;14.272;2022-08-01T09:49:35;5.03;;;2.50;;
38332;SDS011;25748;46.670;14.272;2022-08-01T09:52:13;4.00;;;1.83;;
38332;SDS011;25748;46.670;14.272;2022-08-01T09:54:42;4.35;;;1.83;;
38332;SDS011;25748;46.670;14.272;2022-08-01T09:57:09;2.65;;;1.70;;
38332;SDS011;25748;46.670;14.272;2022-08-01T09:59:41;3.40;;;2.20;;
38332;SDS011;25748;46.670;14.272;2022-08-01T10:02:09;2.05;;;1.55;;
38332;SDS011;25748;46.670;14.272;2022-08-01T10:04:45;4.10;;;2.97;;
38332;SDS011;25748;46.670;14.272;2022-08-01T10:07:12;2.05;;;1.75;;
38332;SDS011;25748;46.670;14.272;2022-08-01T10:09:41;2.22;;;1.67;;
38332;SDS011;25748;46.670;14.272;2022-08-01T10:12:08;3.17;;;2.03;;
38332;SDS011;25748;46.670;14.272;2022-08-01T10:14:35;5.90;;;2.10;;
38332;SDS011;25748;46.670;14.272;2022-08-01T10:17:03;2.05;;;1.80;;
38332;SDS011;25748;46.670;14.272;2022-08-01T10:19:31;2.83;;;2.30;;
38332;SDS011;25748;46.670;14.272;2022-08-01T10:22:00;2.40;;;1.95;;
38332;SDS011;25748;46.670;14.272;2022-08-01T10:24:28;5.22;;;2.35;;
38332;SDS011;25748;46.670;14.272;2022-08-01T10:26:56;3.95;;;2.15;;
38332;SDS011;25748;46.670;14.272;2022-08-01T10:29:27;2.42;;;2.10;;
38332;SDS011;25748;46.670;14.272;2022-08-01T10:31:56;4.57;;;2.20;;
38332;SDS011;25748;46.670;14.272;2022-08-01T10:34:22;2.95;;;2.40;;
38332;SDS011;25748;46.670;14.272;2022-08-01T10:36:49;2.60;;;2.20;;
38332;SDS011;25748;46.670;14.272;2022-08-01T10:39:15;3.50;;;2.65;;
38332;SDS011;25748;46.670;14.272;2022-08-01T10:41:43;2.95;;;2.38;;
38332;SDS011;25748;46.670;14.272;2022-08-01T10:44:10;3.42;;;2.40;;
38332;SDS011;25748;46.670;14.272;2022-08-01T10:46:39;3.00;;;2.50;;
38332;SDS011;25748;46.670;14.272;2022-08-01T10:49:13;2.88;;;2.42;;
38332;SDS011;25748;46.670;14.272;2022-08-01T10:51:42;3.78;;;2.45;;
38332;SDS011;25748;46.670;14.272;2022-08-01T10:54:09;2.70;;;2.30;;
38332;SDS011;25748;46.670;14.272;2022-08-01T10:56:53;2.10;;;1.90;;
38332;SDS011;25748;46.670;14.272;2022-08-01T10:59:28;2.35;;;2.08;;
38332;SDS011;25748;46.670;14.272;2022-08-01T11:02:01;3.50;;;2.20;;
38332;SDS011;25748;46.670;14.272;2022-08-01T11:04:51;2.38;;;2.17;;
38332;SDS011;25748;46.670;14.272;2022-08-01T11:07:46;3.03;;;2.10;;
38332;SDS011;25748;46.670;14.272;2022-08-01T11:10:39;2.78;;;2.33;;
38332;SDS011;25748;46.670;14.272;2022-08-01T11:13:10;2.22;;;2.03;;
38332;SDS011;25748;46.670;14.272;2022-08-01T11:15:39;4.10;;;2.22;;
38332;SDS011;25748;46.670;14.272;2022-08-01T11:20:57;2.50;;;1.83;;
38332;SDS011;25748;46.670;14.272;2022-08-01T11:23:28;4.40;;;1.98;;
38332;SDS011;25748;46.670;14.272;2022-08-01T11:38:42;1.73;;;1.50;;
38332;SDS011;25748;46.670;14.272;2022-08-01T11:41:13;1.65;;;1.33;;
38332;SDS011;25748;46.670;14.272;2022-08-01T11:44:03;1.88;;;1.50;;
38332;SDS011;25748;46.670;14.272;2022-08-01T11:57:11;2.03;;;1.30;;
38332;SDS011;25748;46.670;14.272;2022-08-01T11:59:42;3.17;;;1.75;;
38332;SDS011;25748;46.670;14.272;2022-08-01T12:02:29;1.98;;;1.70;;
38332;SDS011;25748;46.670;14.272;2022-08-01T12:04:58;3.92;;;1.60;;
38332;SDS011;25748;46.670;14.272;2022-08-01T12:07:27;2.13;;;1.48;;
38332;SDS011;25748;46.670;14.272;2022-08-01T12:10:06;3.92;;;1.60;;
38332;SDS011;25748;46.670;14.272;2022-08-01T12:12:43;1.90;;;1.58;;
38332;SDS011;25748;46.670;14.272;2022-08-01T12:15:21;3.70;;;1.70;;
38332;SDS011;25748;46.670;14.272;2022-08-01T12:18:22;7.20;;;1.63;;
38332;SDS011;25748;46.670;14.272;2022-08-01T12:20:42;1.70;;;1.60;;
38332;SDS011;25748;46.670;14.272;2022-08-01T12:23:13;1.98;;;1.55;;
38332;SDS011;25748;46.670;14.272;2022-08-01T12:25:39;2.00;;;1.80;;
38332;SDS011;25748;46.670;14.272;2022-08-01T12:28:10;2.33;;;1.83;;
38332;SDS011;25748;46.670;14.272;2022-08-01T12:30:38;3.30;;;1.80;;
38332;SDS011;25748;46.670;14.272;2022-08-01T12:33:05;1.80;;;1.70;;
38332;SDS011;25748;46.670;14.272;2022-08-01T12:35:33;1.70;;;1.60;;
38332;SDS011;25748;46.670;14.272;2022-08-01T12:38:06;2.00;;;1.55;;
38332;SDS011;25748;46.670;14.272;2022-08-01T12:40:40;4.78;;;1.50;;
38332;SDS011;25748;46.670;14.272;2022-08-01T12:43:08;1.83;;;1.60;;
38332;SDS011;25748;46.670;14.272;2022-08-01T12:48:09;3.72;;;1.65;;
38332;SDS011;25748;46.670;14.272;2022-08-01T12:50:39;2.88;;;2.10;;
38332;SDS011;25748;46.670;14.272;2022-08-01T12:53:09;2.43;;;1.80;;
38332;SDS011;25748;46.670;14.272;2022-08-01T12:55:48;2.28;;;1.75;;
38332;SDS011;25748;46.670;14.272;2022-08-01T12:58:18;6.45;;;1.75;;
38332;SDS011;25748;46.670;14.272;2022-08-01T13:00:46;2.00;;;1.60;;
38332;SDS011;25748;46.670;14.272;2022-08-01T13:03:14;3.25;;;1.48;;
38332;SDS011;25748;46.670;14.272;2022-08-01T13:05:54;4.07;;;1.70;;
38332;SDS011;25748;46.670;14.272;2022-08-01T13:08:28;1.42;;;1.15;;
38332;SDS011;25748;46.670;14.272;2022-08-01T13:11:00;5.40;;;1.40;;
38332;SDS011;25748;46.670;14.272;2022-08-01T13:13:46;1.90;;;1.60;;
38332;SDS011;25748;46.670;14.272;2022-08-01T13:16:18;3.88;;;1.77;;
38332;SDS011;25748;46.670;14.272;2022-08-01T13:18:50;2.20;;;1.60;;
38332;SDS011;25748;46.670;14.272;2022-08-01T13:29:06;1.90;;;1.55;;
38332;SDS011;25748;46.670;14.272;2022-08-01T13:31:33;2.42;;;1.85;;
38332;SDS011;25748;46.670;14.272;2022-08-01T13:34:00;2.30;;;1.33;;
38332;SDS011;25748;46.670;14.272;2022-08-01T13:36:29;6.32;;;1.60;;
38332;SDS011;25748;46.670;14.272;2022-08-01T13:38:56;3.05;;;1.55;;
38332;SDS011;25748;46.670;14.272;2022-08-01T13:41:41;1.80;;;1.65;;
38332;SDS011;25748;46.670;14.272;2022-08-01T13:44:07;3.58;;;1.48;;
38332;SDS011;25748;46.670;14.272;2022-08-01T13:46:35;1.98;;;1.77;;
38332;SDS011;25748;46.670;14.272;2022-08-01T13:49:02;9.13;;;2.03;;
38332;SDS011;25748;46.670;14.272;2022-08-01T13:51:28;1.80;;;1.50;;
38332;SDS011;25748;46.670;14.272;2022-08-01T13:53:55;4.50;;;1.45;;
38332;SDS011;25748;46.670;14.272;2022-08-01T13:56:21;1.83;;;1.58;;
38332;SDS011;25748;46.670;14.272;2022-08-01T13:58:47;3.42;;;1.40;;
38332;SDS011;25748;46.670;14.272;2022-08-01T14:01:12;1.88;;;1.58;;
38332;SDS011;25748;46.670;14.272;2022-08-01T14:03:38;1.52;;;1.38;;
38332;SDS011;25748;46.670;14.272;2022-08-01T14:06:04;4.47;;;1.38;;
38332;SDS011;25748;46.670;14.272;2022-08-01T14:08:30;2.13;;;1.50;;
38332;SDS011;25748;46.670;14.272;2022-08-01T14:10:56;3.67;;;1.35;;
38332;SDS011;25748;46.670;14.272;2022-08-01T14:13:24;2.08;;;1.17;;
38332;SDS011;25748;46.670;14.272;2022-08-01T14:15:50;3.22;;;1.55;;
38332;SDS011;25748;46.670;14.272;2022-08-01T14:18:17;1.75;;;1.48;;
38332;SDS011;25748;46.670;14.272;2022-08-01T14:20:43;3.45;;;1.48;;
38332;SDS011;25748;46.670;14.272;2022-08-01T14:23:09;1.75;;;1.40;;
38332;SDS011;25748;46.670;14.272;2022-08-01T14:25:39;3.97;;;1.63;;
38332;SDS011;25748;46.670;14.272;2022-08-01T14:28:05;1.92;;;1.60;;
38332;SDS011;25748;46.670;14.272;2022-08-01T14:30:32;1.83;;;1.50;;
38332;SDS011;25748;46.670;14.272;2022-08-01T14:32:58;2.17;;;1.60;;
38332;SDS011;25748;46.670;14.272;2022-08-01T14:35:24;3.58;;;1.48;;
38332;SDS011;25748;46.670;14.272;2022-08-01T14:37:50;1.63;;;1.50;;
38332;SDS011;25748;46.670;14.272;2022-08-01T14:40:16;1.60;;;1.48;;
38332;SDS011;25748;46.670;14.272;2022-08-01T14:42:42;1.70;;;1.30;;
38332;SDS011;25748;46.670;14.272;2022-08-01T14:45:11;2.50;;;1.30;;
38332;SDS011;25748;46.670;14.272;2022-08-01T14:47:39;1.92;;;1.42;;
38332;SDS011;25748;46.670;14.272;2022-08-01T14:50:07;1.52;;;1.33;;
38332;SDS011;25748;46.670;14.272;2022-08-01T14:52:35;3.05;;;1.30;;
38332;SDS011;25748;46.670;14.272;2022-08-01T14:55:03;1.95;;;1.38;;
38332;SDS011;25748;46.670;14.272;2022-08-01T14:57:30;1.30;;;1.10;;
38332;SDS011;25748;46.670;14.272;2022-08-01T14:59:55;1.65;;;1.30;;
38332;SDS011;25748;46.670;14.272;2022-08-01T15:02:21;1.30;;;1.15;;
38332;SDS011;25748;46.670;14.272;2022-08-01T15:04:47;1.90;;;1.42;;
38332;SDS011;25748;46.670;14.272;2022-08-01T15:07:15;1.90;;;1.40;;
38332;SDS011;25748;46.670;14.272;2022-08-01T15:09:42;2.72;;;2.22;;
38332;SDS011;25748;46.670;14.272;2022-08-01T15:12:08;2.95;;;1.20;;
38332;SDS011;25748;46.670;14.272;2022-08-01T15:14:35;1.60;;;1.25;;
38332;SDS011;25748;46.670;14.272;2022-08-01T15:17:13;1.83;;;1.30;;
38332;SDS011;25748;46.670;14.272;2022-08-01T15:19:39;2.05;;;1.70;;
38332;SDS011;25748;46.670;14.272;2022-08-01T15:22:05;1.40;;;1.10;;
38332;SDS011;25748;46.670;14.272;2022-08-01T15:24:31;1.60;;;1.30;;
38332;SDS011;25748;46.670;14.272;2022-08-01T15:26:56;1.23;;;1.10;;
38332;SDS011;25748;46.670;14.272;2022-08-01T15:29:22;3.92;;;1.20;;
38332;SDS011;25748;46.670;14.272;2022-08-01T15:31:48;1.48;;;1.10;;
38332;SDS011;25748;46.670;14.272;2022-08-01T15:34:14;1.90;;;1.20;;
38332;SDS011;25748;46.670;14.272;2022-08-01T15:36:40;1.67;;;1.33;;
38332;SDS011;25748;46.670;14.272;2022-08-01T15:39:07;1.73;;;1.30;;
38332;SDS011;25748;46.670;14.272;2022-08-01T15:41:33;5.63;;;1.30;;
38332;SDS011;25748;46.670;14.272;2022-08-01T15:43:59;1.67;;;1.27;;
38332;SDS011;25748;46.670;14.272;2022-08-01T15:46:25;1.40;;;1.13;;
38332;SDS011;25748;46.670;14.272;2022-08-01T15:48:51;1.15;;;0.80;;
38332;SDS011;25748;46.670;14.272;2022-08-01T15:51:16;0.60;;;0.50;;
38332;SDS011;25748;46.670;14.272;2022-08-01T15:53:42;1.55;;;0.90;;
38332;SDS011;25748;46.670;14.272;2022-08-01T15:56:09;1.48;;;0.88;;
38332;SDS011;25748;46.670;14.272;2022-08-01T15:58:34;1.60;;;1.00;;
38332;SDS011;25748;46.670;14.272;2022-08-01T16:01:00;2.25;;;1.83;;
38332;SDS011;25748;46.670;14.272;2022-08-01T16:03:26;1.67;;;1.58;;
38332;SDS011;25748;46.670;14.272;2022-08-01T16:05:52;3.15;;;1.77;;
38332;SDS011;25748;46.670;14.272;2022-08-01T16:08:18;6.15;;;1.90;;
38332;SDS011;25748;46.670;14.272;2022-08-01T16:10:44;3.33;;;1.85;;
38332;SDS011;25748;46.670;14.272;2022-08-01T16:13:10;2.55;;;2.00;;
38332;SDS011;25748;46.670;14.272;2022-08-01T16:15:36;3.83;;;2.00;;
38332;SDS011;25748;46.670;14.272;2022-08-01T16:18:06;2.25;;;1.67;;
38332;SDS011;25748;46.670;14.272;2022-08-01T16:20:33;4.10;;;1.70;;
38332;SDS011;25748;46.670;14.272;2022-08-01T16:23:00;2.38;;;1.77;;
38332;SDS011;25748;46.670;14.272;2022-08-01T16:25:26;4.45;;;1.50;;
38332;SDS011;25748;46.670;14.272;2022-08-01T16:27:52;5.82;;;1.85;;
38332;SDS011;25748;46.670;14.272;2022-08-01T16:30:17;2.42;;;1.52;;
38332;SDS011;25748;46.670;14.272;2022-08-01T16:32:43;2.63;;;1.70;;
38332;SDS011;25748;46.670;14.272;2022-08-01T16:35:09;5.57;;;1.77;;
38332;SDS011;25748;46.670;14.272;2022-08-01T16:37:35;3.10;;;1.60;;
38332;SDS011;25748;46.670;14.272;2022-08-01T16:40:01;3.97;;;1.40;;
38332;SDS011;25748;46.670;14.272;2022-08-01T16:42:26;2.20;;;1.27;;
38332;SDS011;25748;46.670;14.272;2022-08-01T16:44:52;2.90;;;1.20;;
38332;SDS011;25748;46.670;14.272;2022-08-01T16:47:18;2.55;;;1.13;;
38332;SDS011;25748;46.670;14.272;2022-08-01T16:49:43;1.67;;;1.08;;
38332;SDS011;25748;46.670;14.272;2022-08-01T16:52:09;2.53;;;1.90;;
38332;SDS011;25748;46.670;14.272;2022-08-01T16:54:36;9.10;;;1.65;;
38332;SDS011;25748;46.670;14.272;2022-08-01T16:57:01;1.85;;;1.48;;
38332;SDS011;25748;46.670;14.272;2022-08-01T16:59:28;2.47;;;1.63;;
38332;SDS011;25748;46.670;14.272;2022-08-01T17:01:58;4.90;;;1.65;;
38332;SDS011;25748;46.670;14.272;2022-08-01T17:04:28;2.05;;;1.48;;
38332;SDS011;25748;46.670;14.272;2022-08-01T17:09:19;1.42;;;1.23;;
38332;SDS011;25748;46.670;14.272;2022-08-01T17:11:48;2.50;;;1.20;;
38332;SDS011;25748;46.670;14.272;2022-08-01T17:14:24;1.77;;;1.20;;
38332;SDS011;25748;46.670;14.272;2022-08-01T17:16:50;3.63;;;1.25;;
38332;SDS011;25748;46.670;14.272;2022-08-01T17:19:17;1.40;;;0.90;;
38332;SDS011;25748;46.670;14.272;2022-08-01T17:21:43;0.90;;;0.82;;
38332;SDS011;25748;46.670;14.272;2022-08-01T17:24:09;1.10;;;0.88;;
38332;SDS011;25748;46.670;14.272;2022-08-01T17:26:36;3.40;;;0.93;;
38332;SDS011;25748;46.670;14.272;2022-08-01T17:29:04;1.20;;;0.88;;
38332;SDS011;25748;46.670;14.272;2022-08-01T17:31:30;2.13;;;0.80;;
38332;SDS011;25748;46.670;14.272;2022-08-01T17:33:56;1.33;;;0.90;;
38332;SDS011;25748;46.670;14.272;2022-08-01T17:36:23;3.67;;;0.70;;
38332;SDS011;25748;46.670;14.272;2022-08-01T17:38:49;3.53;;;0.93;;
38332;SDS011;25748;46.670;14.272;2022-08-01T17:41:15;2.38;;;0.90;;
38332;SDS011;25748;46.670;14.272;2022-08-01T17:43:41;1.80;;;0.85;;
38332;SDS011;25748;46.670;14.272;2022-08-01T17:46:07;0.95;;;0.73;;
38332;SDS011;25748;46.670;14.272;2022-08-01T17:48:34;2.45;;;0.90;;
38332;SDS011;25748;46.670;14.272;2022-08-01T17:51:00;0.98;;;0.75;;
38332;SDS011;25748;46.670;14.272;2022-08-01T17:53:26;1.10;;;0.88;;
38332;SDS011;25748;46.670;14.272;2022-08-01T17:55:52;1.60;;;1.08;;
38332;SDS011;25748;46.670;14.272;2022-08-01T17:58:19;1.55;;;0.82;;
38332;SDS011;25748;46.670;14.272;2022-08-01T18:00:45;3.03;;;1.00;;
38332;SDS011;25748;46.670;14.272;2022-08-01T18:03:11;1.00;;;0.90;;
38332;SDS011;25748;46.670;14.272;2022-08-01T18:05:37;1.02;;;0.90;;
38332;SDS011;25748;46.670;14.272;2022-08-01T18:08:03;4.72;;;0.80;;
38332;SDS011;25748;46.670;14.272;2022-08-01T18:10:30;1.65;;;0.93;;
38332;SDS011;25748;46.670;14.272;2022-08-01T18:12:56;1.30;;;0.70;;
38332;SDS011;25748;46.670;14.272;2022-08-01T18:15:22;2.65;;;0.70;;
38332;SDS011;25748;46.670;14.272;2022-08-01T18:17:48;1.55;;;1.10;;
38332;SDS011;25748;46.670;14.272;2022-08-01T18:20:13;1.90;;;0.90;;
38332;SDS011;25748;46.670;14.272;2022-08-01T18:22:39;4.05;;;0.90;;
38332;SDS011;25748;46.670;14.272;2022-08-01T18:25:06;1.38;;;0.93;;
38332;SDS011;25748;46.670;14.272;2022-08-01T18:27:32;3.08;;;1.00;;
38332;SDS011;25748;46.670;14.272;2022-08-01T18:29:58;1.58;;;0.98;;
38332;SDS011;25748;46.670;14.272;2022-08-01T18:32:23;2.55;;;1.33;;
38332;SDS011;25748;46.670;14.272;2022-08-01T18:34:49;1.75;;;0.88;;
38332;SDS011;25748;46.670;14.272;2022-08-01T18:37:15;1.38;;;0.80;;
38332;SDS011;25748;46.670;14.272;2022-08-01T18:39:41;4.07;;;1.02;;
38332;SDS011;25748;46.670;14.272;2022-08-01T18:42:07;1.27;;;0.90;;
38332;SDS011;25748;46.670;14.272;2022-08-01T18:44:33;2.25;;;0.90;;
38332;SDS011;25748;46.670;14.272;2022-08-01T18:47:00;1.20;;;0.77;;
38332;SDS011;25748;46.670;14.272;2022-08-01T18:49:26;0.82;;;0.65;;
38332;SDS011;25748;46.670;14.272;2022-08-01T18:51:52;1.00;;;0.70;;
38332;SDS011;25748;46.670;14.272;2022-08-01T18:56:51;2.85;;;1.00;;
38332;SDS011;25748;46.670;14.272;2022-08-01T18:59:17;3.55;;;1.02;;
38332;SDS011;25748;46.670;14.272;2022-08-01T19:01:43;3.40;;;0.98;;
38332;SDS011;25748;46.670;14.272;2022-08-01T19:04:09;2.63;;;1.35;;
38332;SDS011;25748;46.670;14.272;2022-08-01T19:06:35;1.23;;;0.80;;
38332;SDS011;25748;46.670;14.272;2022-08-01T19:09:02;1.85;;;0.93;;
38332;SDS011;25748;46.670;14.272;2022-08-01T19:11:29;1.08;;;0.85;;
38332;SDS011;25748;46.670;14.272;2022-08-01T19:13:55;4.05;;;1.00;;
38332;SDS011;25748;46.670;14.272;2022-08-01T19:16:21;2.55;;;0.82;;
38332;SDS011;25748;46.670;14.272;2022-08-01T19:18:47;3.00;;;0.90;;
38332;SDS011;25748;46.670;14.272;2022-08-01T19:21:12;1.45;;;1.00;;
38332;SDS011;25748;46.670;14.272;2022-08-01T19:23:38;3.85;;;0.98;;
38332;SDS011;25748;46.670;14.272;2022-08-01T19:26:24;3.15;;;0.82;;
38332;SDS011;25748;46.670;14.272;2022-08-01T19:28:51;0.98;;;0.80;;
38332;SDS011;25748;46.670;14.272;2022-08-01T19:31:26;3.10;;;1.02;;
38332;SDS011;25748;46.670;14.272;2022-08-01T19:33:54;2.70;;;1.05;;
38332;SDS011;25748;46.670;14.272;2022-08-01T19:36:21;1.38;;;0.90;;
38332;SDS011;25748;46.670;14.272;2022-08-01T19:38:47;3.63;;;1.25;;
38332;SDS011;25748;46.670;14.272;2022-08-01T19:41:14;1.55;;;1.00;;
38332;SDS011;25748;46.670;14.272;2022-08-01T19:43:40;1.92;;;0.90;;
38332;SDS011;25748;46.670;14.272;2022-08-01T19:46:07;2.00;;;1.00;;
38332;SDS011;25748;46.670;14.272;2022-08-01T19:48:36;1.42;;;1.00;;
38332;SDS011;25748;46.670;14.272;2022-08-01T19:51:02;2.60;;;1.30;;
38332;SDS011;25748;46.670;14.272;2022-08-01T19:53:37;1.55;;;1.30;;
38332;SDS011;25748;46.670;14.272;2022-08-01T19:56:06;4.47;;;1.25;;
38332;SDS011;25748;46.670;14.272;2022-08-01T19:58:39;1.15;;;0.90;;
38332;SDS011;25748;46.670;14.272;2022-08-01T20:01:11;4.55;;;1.30;;
38332;SDS011;25748;46.670;14.272;2022-08-01T20:03:42;1.00;;;0.88;;
38332;SDS011;25748;46.670;14.272;2022-08-01T20:06:15;1.45;;;1.15;;
38332;SDS011;25748;46.670;14.272;2022-08-01T20:08:42;1.55;;;1.10;;
38332;SDS011;25748;46.670;14.272;2022-08-01T20:11:10;2.92;;;1.30;;
38332;SDS011;25748;46.670;14.272;2022-08-01T20:13:36;6.00;;;1.10;;
38332;SDS011;25748;46.670;14.272;2022-08-01T20:16:03;2.08;;;1.38;;
38332;SDS011;25748;46.670;14.272;2022-08-01T20:18:29;1.77;;;1.10;;
38332;SDS011;25748;46.670;14.272;2022-08-01T20:20:55;1.88;;;0.98;;
38332;SDS011;25748;46.670;14.272;2022-08-01T20:23:23;3.25;;;1.58;;
38332;SDS011;25748;46.670;14.272;2022-08-01T20:25:51;6.15;;;1.30;;
38332;SDS011;25748;46.670;14.272;2022-08-01T20:28:24;2.50;;;1.40;;
38332;SDS011;25748;46.670;14.272;2022-08-01T20:30:55;1.77;;;1.27;;
38332;SDS011;25748;46.670;14.272;2022-08-01T20:33:23;2.25;;;1.13;;
38332;SDS011;25748;46.670;14.272;2022-08-01T20:35:50;1.60;;;0.90;;
38332;SDS011;25748;46.670;14.272;2022-08-01T20:38:19;3.63;;;1.20;;
38332;SDS011;25748;46.670;14.272;2022-08-01T20:40:46;1.83;;;1.33;;
38332;SDS011;25748;46.670;14.272;2022-08-01T20:43:16;2.33;;;1.30;;
38332;SDS011;25748;46.670;14.272;2022-08-01T20:45:46;2.72;;;1.40;;
38332;SDS011;25748;46.670;14.272;2022-08-01T20:48:14;3.72;;;1.52;;
38332;SDS011;25748;46.670;14.272;2022-08-01T20:50:42;3.88;;;1.23;;
38332;SDS011;25748;46.670;14.272;2022-08-01T20:53:28;1.85;;;1.23;;
38332;SDS011;25748;46.670;14.272;2022-08-01T20:55:59;2.85;;;1.40;;
38332;SDS011;25748;46.670;14.272;2022-08-01T20:58:36;1.95;;;1.08;;
38332;SDS011;25748;46.670;14.272;2022-08-01T21:01:19;1.60;;;1.10;;
38332;SDS011;25748;46.670;14.272;2022-08-01T21:06:22;1.92;;;1.27;;
38332;SDS011;25748;46.670;14.272;2022-08-01T21:08:57;2.67;;;1.20;;
38332;SDS011;25748;46.670;14.272;2022-08-01T21:11:25;2.22;;;1.15;;
38332;SDS011;25748;46.670;14.272;2022-08-01T21:17:18;2.33;;;1.35;;
38332;SDS011;25748;46.670;14.272;2022-08-01T21:19:53;5.80;;;1.83;;
38332;SDS011;25748;46.670;14.272;2022-08-01T21:22:26;4.55;;;1.73;;
38332;SDS011;25748;46.670;14.272;2022-08-01T21:25:00;2.00;;;1.70;;
38332;SDS011;25748;46.670;14.272;2022-08-01T21:27:32;2.42;;;1.50;;
38332;SDS011;25748;46.670;14.272;2022-08-01T21:30:04;2.70;;;1.42;;
38332;SDS011;25748;46.670;14.272;2022-08-01T21:32:32;1.98;;;1.50;;
38332;SDS011;25748;46.670;14.272;2022-08-01T21:35:00;2.28;;;1.52;;
38332;SDS011;25748;46.670;14.272;2022-08-01T21:37:27;2.92;;;1.75;;
38332;SDS011;25748;46.670;14.272;2022-08-01T21:39:55;4.65;;;1.27;;
38332;SDS011;25748;46.670;14.272;2022-08-01T21:42:24;5.05;;;1.60;;
38332;SDS011;25748;46.670;14.272;2022-08-01T21:44:53;1.88;;;1.60;;
38332;SDS011;25748;46.670;14.272;2022-08-01T21:47:23;1.75;;;1.25;;
38332;SDS011;25748;46.670;14.272;2022-08-01T21:49:53;2.65;;;1.98;;
38332;SDS011;25748;46.670;14.272;2022-08-01T21:52:18;2.08;;;1.30;;
38332;SDS011;25748;46.670;14.272;2022-08-01T22:00:17;2.78;;;1.60;;
38332;SDS011;25748;46.670;14.272;2022-08-01T22:02:59;3.33;;;2.08;;
38332;SDS011;25748;46.670;14.272;2022-08-01T22:05:32;2.47;;;1.80;;
38332;SDS011;25748;46.670;14.272;2022-08-01T22:08:00;4.65;;;1.50;;
38332;SDS011;25748;46.670;14.272;2022-08-01T22:10:28;7.25;;;1.60;;
38332;SDS011;25748;46.670;14.272;2022-08-01T22:12:54;1.73;;;1.48;;
38332;SDS011;25748;46.670;14.272;2022-08-01T22:15:24;3.05;;;1.63;;
38332;SDS011;25748;46.670;14.272;2022-08-01T22:17:53;4.43;;;1.80;;
38332;SDS011;25748;46.670;14.272;2022-08-01T22:20:23;2.03;;;1.63;;
38332;SDS011;25748;46.670;14.272;2022-08-01T22:22:50;1.98;;;1.50;;
38332;SDS011;25748;46.670;14.272;2022-08-01T22:25:18;3.58;;;1.50;;
38332;SDS011;25748;46.670;14.272;2022-08-01T22:27:45;2.33;;;1.60;;
38332;SDS011;25748;46.670;14.272;2022-08-01T22:30:11;3.17;;;1.98;;
38332;SDS011;25748;46.670;14.272;2022-08-01T22:32:39;2.55;;;1.80;;
38332;SDS011;25748;46.670;14.272;2022-08-01T22:35:07;3.47;;;1.58;;
38332;SDS011;25748;46.670;14.272;2022-08-01T22:37:37;2.88;;;1.90;;
38332;SDS011;25748;46.670;14.272;2022-08-01T22:40:05;1.45;;;1.30;;
38332;SDS011;25748;46.670;14.272;2022-08-01T22:47:35;3.42;;;1.73;;
38332;SDS011;25748;46.670;14.272;2022-08-01T22:55:49;3.90;;;1.70;;
38332;SDS011;25748;46.670;14.272;2022-08-01T22:58:17;2.00;;;1.25;;
38332;SDS011;25748;46.670;14.272;2022-08-01T23:00:44;2.13;;;1.52;;
38332;SDS011;25748;46.670;14.272;2022-08-01T23:03:19;2.15;;;1.30;;
38332;SDS011;25748;46.670;14.272;2022-08-01T23:08:36;1.70;;;1.27;;
38332;SDS011;25748;46.670;14.272;2022-08-01T23:11:05;5.43;;;1.35;;
38332;SDS011;25748;46.670;14.272;2022-08-01T23:13:32;7.15;;;1.88;;
38332;SDS011;25748;46.670;14.272;2022-08-01T23:15:59;3.38;;;1.60;;
38332;SDS011;25748;46.670;14.272;2022-08-01T23:18:27;2.80;;;1.40;;
38332;SDS011;25748;46.670;14.272;2022-08-01T23:20:57;2.40;;;1.50;;
38332;SDS011;25748;46.670;14.272;2022-08-01T23:23:24;6.95;;;1.10;;
38332;SDS011;25748;46.670;14.272;2022-08-01T23:25:52;1.80;;;0.80;;
38332;SDS011;25748;46.670;14.272;2022-08-01T23:28:18;1.67;;;0.73;;
38332;SDS011;25748;46.670;14.272;2022-08-01T23:30:44;2.92;;;1.35;;
38332;SDS011;25748;46.670;14.272;2022-08-01T23:33:11;3.42;;;2.05;;
38332;SDS011;25748;46.670;14.272;2022-08-01T23:35:37;3.28;;;1.63;;
38332;SDS011;25748;46.670;14.272;2022-08-01T23:38:03;2.55;;;1.20;;
38332;SDS011;25748;46.670;14.272;2022-08-01T23:40:30;1.98;;;1.08;;
38332;SDS011;25748;46.670;14.272;2022-08-01T23:42:57;2.22;;;1.08;;
38332;SDS011;25748;46.670;14.272;2022-08-01T23:45:24;3.58;;;0.82;;
38332;SDS011;25748;46.670;14.272;2022-08-01T23:47:50;3.13;;;1.13;;
38332;SDS011;25748;46.670;14.272;2022-08-01T23:50:16;2.55;;;1.60;;
38332;SDS011;25748;46.670;14.272;2022-08-01T23:52:42;4.25;;;1.27;;
38332;SDS011;25748;46.670;14.272;2022-08-01T23:55:08;2.42;;;1.15;;
38332;SDS011;25748;46.670;14.272;2022-08-01T23:57:35;4.72;;;1.63;;
